Time;durP1;ratioP1;P1;durP2;ratioP2;P2;SDS_P1;SDS_P2;PMS_P1;PMS_P2;Temp;Humidity;BMP_temperature;BMP_pressure;BME280_temperature;BME280_humidity;BME280_pressure;Samples;Min_cycle;Max_cycle;Signal;HPM_P1;HPM_P2
2022/06/10 00:00:46;;;;;;;4.97;1.40;;;;;;;20.36;52.38;101963.16;5032329;28;20568;-69
2022/06/10 00:03:32;;;;;;;4.53;1.40;;;;;;;20.35;52.62;101962.31;5032007;28;20116;-68
2022/06/10 00:06:04;;;;;;;4.95;1.75;;;;;;;20.37;52.58;101964.88;5032374;28;20080;-68
2022/06/10 00:08:35;;;;;;;5.43;1.30;;;;;;;20.36;52.51;101969.31;5032306;28;20036;-69
2022/06/10 00:11:03;;;;;;;5.80;1.52;;;;;;;20.35;52.59;101964.97;5032924;28;20061;-68
2022/06/10 00:13:31;;;;;;;5.72;1.67;;;;;;;20.35;52.60;101961.50;5032867;28;20071;-68
2022/06/10 00:16:00;;;;;;;6.85;1.63;;;;;;;20.34;52.51;101965.09;5031906;28;20064;-68
2022/06/10 00:18:27;;;;;;;4.38;1.60;;;;;;;20.33;52.48;101963.38;5032441;28;20032;-68
2022/06/10 00:20:53;;;;;;;6.18;1.70;;;;;;;20.33;52.64;101968.69;5032325;28;20026;-68
2022/06/10 00:23:19;;;;;;;5.90;1.70;;;;;;;20.33;52.80;101966.03;5032336;28;20044;-68
2022/06/10 00:25:45;;;;;;;5.53;1.60;;;;;;;20.30;52.58;101954.72;5032383;28;20126;-68
2022/06/10 00:28:12;;;;;;;3.40;1.30;;;;;;;20.32;52.50;101964.38;5031834;28;20025;-68
2022/06/10 00:30:38;;;;;;;5.20;1.55;;;;;;;20.30;52.43;101959.19;5032337;28;20030;-68
2022/06/10 00:33:05;;;;;;;6.05;1.67;;;;;;;20.29;52.54;101958.31;5032226;28;20083;-68
2022/06/10 00:35:31;;;;;;;5.72;1.73;;;;;;;20.30;52.66;101967.13;5031519;28;20037;-68
2022/06/10 00:37:57;;;;;;;4.78;1.60;;;;;;;20.29;52.49;101960.13;5032459;28;20027;-68
2022/06/10 00:40:26;;;;;;;4.28;1.33;;;;;;;20.30;52.48;101961.81;5032282;28;20959;-68
2022/06/10 00:42:56;;;;;;;5.53;1.60;;;;;;;20.29;52.63;101965.41;5032104;28;20030;-68
2022/06/10 00:45:55;;;;;;;4.07;1.33;;;;;;;20.28;52.55;101955.78;5031898;28;20033;-68
2022/06/10 00:48:27;;;;;;;3.72;1.40;;;;;;;20.27;52.53;101954.09;5032202;28;20104;-68
2022/06/10 00:50:54;;;;;;;7.20;1.52;;;;;;;20.26;52.82;101955.88;5031442;28;20615;-68
2022/06/10 00:53:23;;;;;;;5.43;1.45;;;;;;;20.27;52.53;101954.09;5032144;28;20025;-68
2022/06/10 00:55:51;;;;;;;4.93;1.60;;;;;;;20.26;52.63;101950.59;5031767;28;20025;-67
2022/06/10 00:58:31;;;;;;;5.00;1.60;;;;;;;20.26;52.59;101941.81;5031798;28;20021;-68
2022/06/10 01:00:57;;;;;;;5.10;1.58;;;;;;;20.25;52.57;101948.06;5032468;28;20076;-67
2022/06/10 01:03:22;;;;;;;4.47;1.45;;;;;;;20.25;52.55;101945.41;5031551;28;20021;-68
2022/06/10 01:05:47;;;;;;;4.13;1.37;;;;;;;20.25;53.10;101948.94;5031888;28;20042;-68
2022/06/10 01:08:15;;;;;;;4.43;1.58;;;;;;;20.25;52.70;101945.41;5031933;28;20281;-68
2022/06/10 01:11:22;;;;;;;6.20;1.55;;;;;;;20.24;52.63;101947.22;5031654;28;20025;-68
2022/06/10 01:14:07;;;;;;;4.32;1.55;;;;;;;20.23;52.60;101950.81;5032605;28;20036;-68
2022/06/10 01:16:51;;;;;;;3.67;1.40;;;;;;;20.21;52.71;101955.38;5035981;28;20033;-68
2022/06/10 01:19:27;;;;;;;4.53;1.73;;;;;;;20.22;52.51;101959.72;5035075;28;20116;-68
2022/06/10 01:22:30;;;;;;;3.53;1.27;;;;;;;20.21;52.62;101951.91;5035872;28;20474;-68
2022/06/10 01:25:21;;;;;;;3.22;1.25;;;;;;;20.21;52.49;101951.91;5035279;28;20060;-68
2022/06/10 01:28:19;;;;;;;5.93;2.00;;;;;;;20.20;52.62;101950.19;5035545;28;20397;-68
2022/06/10 01:31:03;;;;;;;6.15;1.50;;;;;;;20.20;52.53;101944.91;5035778;28;20025;-68
2022/06/10 01:33:44;;;;;;;3.95;1.30;;;;;;;20.19;52.53;101948.53;5035415;28;20477;-68
2022/06/10 01:36:32;;;;;;;4.43;1.30;;;;;;;20.19;52.62;101946.72;5035246;28;20116;-68
2022/06/10 01:39:14;;;;;;;6.00;1.48;;;;;;;20.17;52.68;101948.66;5035171;28;20121;-68
2022/06/10 01:41:58;;;;;;;4.25;1.33;;;;;;;20.18;52.74;101952.13;5035277;28;20481;-68
2022/06/10 01:44:54;;;;;;;6.50;1.73;;;;;;;20.17;52.50;101953.06;5035103;28;20469;-68
2022/06/10 01:47:29;;;;;;;4.55;1.30;;;;;;;20.17;52.69;101955.72;5034303;28;20036;-68
2022/06/10 01:50:10;;;;;;;3.67;1.50;;;;;;;20.16;52.65;101948.75;5035397;28;20037;-68
2022/06/10 01:52:41;;;;;;;4.32;1.60;;;;;;;20.16;52.54;101951.41;5035152;28;20025;-68
2022/06/10 01:55:21;;;;;;;4.32;1.40;;;;;;;20.16;52.48;101946.09;5034804;28;20052;-68
2022/06/10 01:57:58;;;;;;;4.68;1.45;;;;;;;20.16;52.47;101954.88;5035439;28;20155;-68
2022/06/10 02:00:30;;;;;;;3.95;1.30;;;;;;;20.15;52.66;101947.88;5034465;28;20025;-68
2022/06/10 02:03:06;;;;;;;4.43;1.40;;;;;;;20.14;52.62;101945.34;5034707;28;20033;-68
2022/06/10 02:05:53;;;;;;;3.65;1.33;;;;;;;20.14;52.85;101951.50;5035179;28;20029;-68
2022/06/10 02:08:27;;;;;;;5.18;1.67;;;;;;;20.14;52.59;101955.94;5016760;28;20028;-68
2022/06/10 02:11:18;;;;;;;4.25;1.38;;;;;;;20.13;52.78;101955.09;5035023;28;20030;-68
2022/06/10 02:13:49;;;;;;;4.53;1.52;;;;;;;20.14;52.79;101958.59;5025357;28;20038;-68
2022/06/10 02:16:18;;;;;;;3.97;1.80;;;;;;;20.13;52.68;101956.91;5034526;28;20473;-68
2022/06/10 02:18:48;;;;;;;4.18;1.40;;;;;;;20.13;52.59;101954.28;5034947;28;20053;-68
2022/06/10 02:21:28;;;;;;;5.57;1.67;;;;;;;20.13;52.66;101948.97;5033908;28;20551;-68
2022/06/10 02:24:01;;;;;;;2.92;1.27;;;;;;;20.11;52.66;101949.91;5034516;28;20369;-68
2022/06/10 02:26:33;;;;;;;4.45;1.65;;;;;;;20.11;52.60;101949.91;5034230;28;20045;-68
2022/06/10 02:29:07;;;;;;;3.92;1.30;;;;;;;20.09;52.64;101953.63;5034033;28;20022;-68
2022/06/10 02:31:42;;;;;;;6.10;1.60;;;;;;;20.11;52.50;101964.97;5034703;28;20021;-68
2022/06/10 02:34:12;;;;;;;5.00;1.40;;;;;;;20.11;52.67;101972.91;5034156;28;20124;-68
2022/06/10 02:37:03;;;;;;;5.60;1.42;;;;;;;20.10;52.70;101963.25;5033907;28;20044;-68
2022/06/10 02:39:46;;;;;;;3.83;1.45;;;;;;;20.10;52.84;101968.56;5034549;28;20397;-68
2022/06/10 02:42:24;;;;;;;3.90;1.30;;;;;;;20.09;52.57;101965.06;5033629;28;20025;-69
2022/06/10 02:45:46;;;;;;;6.30;1.83;;;;;;;20.09;52.64;101977.44;5034298;28;20428;-68
2022/06/10 02:48:46;;;;;;;5.07;1.40;;;;;;;20.08;52.74;101975.75;5007541;28;20128;-67
2022/06/10 02:51:14;;;;;;;4.72;1.40;;;;;;;20.08;52.89;101979.25;5033617;28;20029;-68
2022/06/10 02:53:39;;;;;;;4.10;1.30;;;;;;;20.08;52.68;101975.75;5034400;28;20039;-67
2022/06/10 02:56:20;;;;;;;3.67;1.30;;;;;;;20.09;52.93;101978.31;5033163;28;20029;-68
2022/06/10 03:02:03;;;;;;;4.40;1.40;;;;;;;20.07;53.03;101968.78;5034201;28;20032;-67
2022/06/10 03:05:01;;;;;;;5.05;1.95;;;;;;;20.06;53.06;101967.06;5022902;28;20049;-67
2022/06/10 03:07:54;;;;;;;4.47;1.40;;;;;;;20.07;52.72;101980.19;5033746;28;20071;-67
2022/06/10 03:10:32;;;;;;;3.65;1.30;;;;;;;20.07;52.69;101976.72;5033086;28;20105;-67
2022/06/10 03:13:19;;;;;;;4.35;1.50;;;;;;;20.06;52.88;101975.88;5033678;28;20091;-67
2022/06/10 03:16:10;;;;;;;4.55;1.30;;;;;;;20.07;52.71;101982.00;5033707;28;20033;-68
2022/06/10 03:18:48;;;;;;;3.83;1.30;;;;;;;20.07;52.68;101984.66;5032262;28;20366;-68
2022/06/10 03:21:28;;;;;;;5.70;1.45;;;;;;;20.06;52.64;101977.66;5033402;28;20033;-68
2022/06/10 03:23:56;;;;;;;5.70;1.60;;;;;;;20.05;52.72;101986.56;5033012;28;20025;-68
2022/06/10 03:26:44;;;;;;;5.57;1.38;;;;;;;20.06;52.72;101996.19;5032810;28;20068;-69
2022/06/10 03:29:17;;;;;;;4.07;1.38;;;;;;;20.04;52.79;101990.16;5033503;28;20025;-68
2022/06/10 03:31:50;;;;;;;4.70;1.20;;;;;;;20.04;52.74;101990.16;5033057;28;20030;-68
2022/06/10 03:34:25;;;;;;;5.30;1.48;;;;;;;20.04;52.77;101998.94;5032916;28;20385;-69
2022/06/10 03:36:52;;;;;;;4.47;1.52;;;;;;;20.04;52.77;101998.09;5032883;28;20029;-69
2022/06/10 03:39:21;;;;;;;5.68;1.55;;;;;;;20.04;53.02;102000.75;5032388;28;20021;-69
2022/06/10 03:42:17;;;;;;;4.43;1.42;;;;;;;20.04;52.97;101998.94;5033236;28;20500;-69
2022/06/10 03:44:46;;;;;;;3.45;1.02;;;;;;;20.04;52.98;101992.81;5032720;28;20025;-68
2022/06/10 03:47:19;;;;;;;4.80;1.42;;;;;;;20.03;52.84;101986.69;5032823;28;20033;-68
2022/06/10 03:49:50;;;;;;;4.25;1.40;;;;;;;20.03;53.08;101984.03;5033264;28;20052;-68
2022/06/10 03:52:20;;;;;;;3.38;1.13;;;;;;;20.03;52.84;101983.19;5032147;28;20377;-68
2022/06/10 03:54:48;;;;;;;4.47;1.20;;;;;;;20.03;52.79;101985.84;5032977;28;20132;-68
2022/06/10 03:57:14;;;;;;;3.38;1.17;;;;;;;20.03;52.81;101996.44;5032696;28;20055;-68
2022/06/10 03:59:40;;;;;;;4.95;1.42;;;;;;;20.03;52.89;102001.72;5032662;28;20428;-68
2022/06/10 04:02:05;;;;;;;4.40;1.20;;;;;;;20.02;52.93;102000.00;5032673;28;20032;-68
2022/06/10 04:04:30;;;;;;;6.70;1.42;;;;;;;20.03;52.92;101996.44;5033201;28;20388;-68
2022/06/10 04:07:02;;;;;;;4.30;1.17;;;;;;;20.01;52.99;102000.97;5032885;28;20493;-69
2022/06/10 04:09:33;;;;;;;3.75;1.38;;;;;;;20.01;52.89;102007.13;5033594;28;20026;-68
2022/06/10 04:11:58;;;;;;;5.18;1.30;;;;;;;20.02;52.94;102006.16;5033309;28;20056;-69
2022/06/10 04:14:33;;;;;;;5.50;1.80;;;;;;;20.02;53.01;102006.16;5031660;28;20061;-68
2022/06/10 04:16:58;;;;;;;3.15;1.10;;;;;;;20.01;52.97;102001.81;5032621;28;20754;-69
2022/06/10 04:19:23;;;;;;;4.22;1.33;;;;;;;20.01;52.89;102006.25;5032612;28;20032;-68
2022/06/10 04:21:49;;;;;;;4.22;1.30;;;;;;;20.02;52.94;102010.59;5032192;28;20025;-69
2022/06/10 04:24:15;;;;;;;6.45;1.50;;;;;;;20.02;52.83;102015.91;5032180;28;20056;-69
2022/06/10 04:26:40;;;;;;;4.70;1.45;;;;;;;20.01;52.89;102020.34;5032441;28;20037;-69
2022/06/10 04:29:05;;;;;;;4.10;1.40;;;;;;;20.00;53.00;102017.81;5031702;28;20105;-68
2022/06/10 04:31:31;;;;;;;2.95;1.08;;;;;;;20.00;52.94;102012.53;5032697;28;20032;-68
2022/06/10 04:33:59;;;;;;;4.60;1.40;;;;;;;20.01;52.99;102022.13;5032080;28;20025;-69
2022/06/10 04:36:24;;;;;;;3.50;1.10;;;;;;;19.99;53.11;102011.66;5031913;28;20057;-68
2022/06/10 04:38:49;;;;;;;5.33;1.27;;;;;;;19.99;52.91;102013.47;5032523;28;20075;-68
2022/06/10 04:41:15;;;;;;;4.55;1.30;;;;;;;20.00;52.93;102018.66;5031471;28;20777;-69
2022/06/10 04:43:40;;;;;;;3.03;0.98;;;;;;;20.00;53.01;102018.66;5032454;28;20481;-69
2022/06/10 04:46:08;;;;;;;4.30;1.40;;;;;;;20.01;53.01;102016.84;5031366;28;20080;-69
2022/06/10 04:48:34;;;;;;;4.18;1.27;;;;;;;20.00;53.09;102023.94;5033785;28;20025;-68
2022/06/10 04:50:59;;;;;;;3.45;1.17;;;;;;;19.99;52.89;102024.03;5036108;28;20587;-68
2022/06/10 04:53:25;;;;;;;4.45;1.23;;;;;;;19.99;53.17;102022.22;5036116;28;20017;-68
2022/06/10 04:55:51;;;;;;;4.45;1.30;;;;;;;20.00;53.28;102025.75;5035749;28;20461;-68
2022/06/10 04:58:17;;;;;;;5.72;1.33;;;;;;;19.99;52.97;102016.09;5035757;28;20030;-67
2022/06/10 05:00:47;;;;;;;4.00;1.27;;;;;;;19.99;53.09;102019.59;5036118;28;20028;-68
2022/06/10 05:03:13;;;;;;;4.25;1.00;;;;;;;19.98;53.24;102014.41;5035037;28;20405;-68
2022/06/10 05:05:38;;;;;;;4.22;1.23;;;;;;;19.97;53.26;102013.56;5036012;28;20039;-68
2022/06/10 05:08:05;;;;;;;4.45;1.35;;;;;;;19.97;53.24;102005.63;5034988;28;20037;-68
2022/06/10 05:10:33;;;;;;;5.70;1.50;;;;;;;19.98;53.36;102011.75;5035081;28;20029;-68
2022/06/10 05:12:59;;;;;;;5.40;1.23;;;;;;;19.97;53.33;102013.56;5036146;28;20075;-68
2022/06/10 05:15:28;;;;;;;6.30;1.30;;;;;;;19.97;53.33;102008.28;5035722;28;20021;-67
2022/06/10 05:17:58;;;;;;;4.05;1.20;;;;;;;19.97;53.50;102010.94;5035175;28;20049;-68
2022/06/10 05:20:37;;;;;;;7.95;1.38;;;;;;;19.98;53.31;102011.75;5035361;28;20033;-68
2022/06/10 05:23:03;;;;;;;6.53;1.17;;;;;;;19.98;53.43;102011.75;5035038;28;20030;-68
2022/06/10 05:25:29;;;;;;;6.70;1.65;;;;;;;19.98;53.45;102003.81;5035301;28;20523;-68
2022/06/10 05:28:01;;;;;;;4.65;1.50;;;;;;;19.97;53.51;102002.16;5035672;28;20079;-68
2022/06/10 05:30:30;;;;;;;5.07;1.52;;;;;;;19.97;53.48;102004.78;5035007;28;20033;-68
2022/06/10 05:32:56;;;;;;;5.55;1.45;;;;;;;19.97;53.46;102003.00;5035328;28;20044;-68
2022/06/10 05:35:22;;;;;;;6.65;1.40;;;;;;;19.97;53.58;102000.34;5035216;28;20029;-68
2022/06/10 05:37:48;;;;;;;4.45;1.20;;;;;;;19.97;53.60;101997.69;5035250;28;20063;-68
2022/06/10 05:40:15;;;;;;;5.93;1.30;;;;;;;19.96;53.47;101997.81;5035120;28;20051;-68
2022/06/10 05:42:40;;;;;;;5.22;1.50;;;;;;;19.96;53.60;102001.28;5035379;28;20421;-68
2022/06/10 05:45:07;;;;;;;5.13;1.45;;;;;;;19.95;53.74;102004.91;5034627;28;20183;-68
2022/06/10 05:47:35;;;;;;;5.93;1.25;;;;;;;19.97;53.55;102007.44;5034926;28;20393;-68
2022/06/10 05:50:05;;;;;;;4.55;1.35;;;;;;;19.97;53.55;102002.16;5035080;28;20025;-68
2022/06/10 05:52:31;;;;;;;5.63;1.77;;;;;;;19.97;53.63;102005.63;5034361;28;20053;-67
2022/06/10 05:55:00;;;;;;;7.25;1.60;;;;;;;19.98;53.68;102003.81;5035222;28;20033;-66
2022/06/10 05:57:26;;;;;;;5.57;1.60;;;;;;;19.98;53.66;102003.81;5034817;28;20104;-68
2022/06/10 05:59:52;;;;;;;6.35;1.70;;;;;;;19.98;53.52;102003.81;5033483;28;20118;-66
2022/06/10 06:02:27;;;;;;;4.80;1.38;;;;;;;20.00;53.62;102007.22;5034565;28;20656;-67
2022/06/10 06:04:52;;;;;;;6.40;1.33;;;;;;;20.00;53.48;102001.94;5035187;28;20033;-68
2022/06/10 06:07:24;;;;;;;5.80;1.60;;;;;;;20.00;53.73;102001.94;5033956;28;20041;-68
2022/06/10 06:09:53;;;;;;;5.60;1.27;;;;;;;20.02;53.57;102002.66;5034965;28;20096;-68
2022/06/10 06:12:18;;;;;;;7.03;1.58;;;;;;;20.02;53.61;102010.59;5034017;28;20071;-68
2022/06/10 06:14:44;;;;;;;6.03;1.38;;;;;;;20.01;53.62;102011.53;5034565;28;20037;-68
2022/06/10 06:17:14;;;;;;;6.25;1.88;;;;;;;20.00;53.45;102010.72;5034580;28;20026;-68
2022/06/10 06:19:40;;;;;;;5.57;1.42;;;;;;;20.01;53.54;102017.69;5034292;28;20029;-67
2022/06/10 06:22:07;;;;;;;6.40;1.35;;;;;;;20.01;53.44;102016.84;5034463;28;20041;-68
2022/06/10 06:24:33;;;;;;;5.82;1.25;;;;;;;20.01;53.51;102019.47;5034607;28;20053;-68
2022/06/10 06:26:59;;;;;;;6.05;1.25;;;;;;;20.01;53.33;102017.69;5034116;28;20060;-68
2022/06/10 06:29:24;;;;;;;4.13;1.10;;;;;;;20.01;53.23;102022.13;5033879;28;20428;-68
2022/06/10 06:31:55;;;;;;;4.55;1.35;;;;;;;20.02;53.28;102026.47;5034711;28;20026;-67
2022/06/10 06:34:25;;;;;;;4.80;1.48;;;;;;;20.01;53.30;102027.41;5033529;28;20018;-66
2022/06/10 06:36:53;;;;;;;7.90;1.20;;;;;;;20.01;52.97;102023.00;5034558;28;20485;-66
2022/06/10 06:39:20;;;;;;;3.90;1.20;;;;;;;20.01;53.08;102027.41;5034101;28;20096;-67
2022/06/10 06:41:46;;;;;;;6.53;1.15;;;;;;;20.01;53.07;102030.94;5033551;28;20032;-67
2022/06/10 06:44:12;;;;;;;5.28;1.40;;;;;;;20.00;53.24;102034.53;5033969;28;20025;-67
2022/06/10 06:46:39;;;;;;;3.22;1.10;;;;;;;20.01;53.17;102038.88;5034310;28;20036;-67
2022/06/10 06:49:11;;;;;;;4.82;1.10;;;;;;;20.02;53.14;102043.19;5033127;28;20052;-67
2022/06/10 06:51:37;;;;;;;4.60;1.10;;;;;;;20.02;52.90;102034.41;5034083;28;20055;-67
2022/06/10 06:54:02;;;;;;;5.18;1.10;;;;;;;20.01;53.19;102041.50;5033841;28;20145;-67
2022/06/10 06:56:28;;;;;;;6.32;1.40;;;;;;;20.01;53.10;102048.59;5033145;28;20116;-68
2022/06/10 06:58:54;;;;;;;4.97;1.63;;;;;;;20.02;52.97;102042.34;5034229;28;20057;-68
2022/06/10 07:01:19;;;;;;;4.20;1.23;;;;;;;20.01;53.13;102043.28;5033610;28;20079;-67
2022/06/10 07:03:44;;;;;;;4.93;1.17;;;;;;;20.02;53.10;102040.53;5033427;28;20025;-68
2022/06/10 07:06:10;;;;;;;3.17;1.17;;;;;;;20.01;53.03;102041.50;5033565;28;20360;-67
2022/06/10 07:08:39;;;;;;;6.05;1.30;;;;;;;20.01;53.06;102040.66;5033289;28;20551;-67
2022/06/10 07:11:07;;;;;;;5.55;1.45;;;;;;;20.02;53.02;102040.53;5033029;28;20075;-67
2022/06/10 07:13:33;;;;;;;4.45;1.13;;;;;;;20.01;52.94;102038.88;5033862;28;20029;-67
2022/06/10 07:16:00;;;;;;;4.70;1.23;;;;;;;20.01;53.07;102033.56;5033416;28;20029;-68
2022/06/10 07:18:30;;;;;;;4.05;1.33;;;;;;;20.02;52.92;102037.91;5033562;28;20045;-67
2022/06/10 07:20:56;;;;;;;3.65;1.30;;;;;;;20.02;53.01;102039.72;5033723;28;20063;-67
2022/06/10 07:23:25;;;;;;;3.63;1.00;;;;;;;20.03;52.93;102041.41;5032717;28;20025;-67
2022/06/10 07:25:54;;;;;;;6.10;1.20;;;;;;;20.03;52.98;102052.00;5032984;28;20129;-67
2022/06/10 07:28:20;;;;;;;5.05;1.52;;;;;;;20.02;53.03;102047.66;5033203;28;20365;-67
2022/06/10 07:30:45;;;;;;;6.30;1.25;;;;;;;20.03;52.95;102047.53;5032595;28;20030;-67
2022/06/10 07:33:21;;;;;;;6.22;1.25;;;;;;;20.03;52.78;102044.06;5033115;28;20029;-68
2022/06/10 07:35:46;;;;;;;3.90;1.73;;;;;;;20.03;53.13;102044.88;5033125;28;20029;-68
2022/06/10 07:38:12;;;;;;;3.97;0.90;;;;;;;20.04;53.00;102051.03;5032296;28;20036;-67
2022/06/10 07:43:29;;;;;;;3.60;1.10;;;;;;;20.04;53.15;102059.78;5033666;28;20036;-67
2022/06/10 07:45:54;;;;;;;3.47;1.00;;;;;;;20.06;53.28;102051.75;5032290;28;20030;-69
2022/06/10 07:48:22;;;;;;;2.63;1.13;;;;;;;20.07;53.89;102049.00;5032798;28;20031;-67
2022/06/10 07:50:49;;;;;;;4.38;1.05;;;;;;;20.09;54.77;102051.53;5032493;28;20045;-67
2022/06/10 07:53:14;;;;;;;5.15;1.23;;;;;;;20.09;55.13;102047.09;5032619;28;20445;-68
2022/06/10 07:55:41;;;;;;;3.15;1.02;;;;;;;20.08;55.21;102041.94;5032941;28;20053;-67
2022/06/10 07:58:07;;;;;;;5.70;1.65;;;;;;;20.06;55.30;102042.03;5032174;28;20123;-67
2022/06/10 08:00:36;;;;;;;3.92;1.05;;;;;;;20.06;55.42;102033.22;5032738;28;20030;-67
2022/06/10 08:03:03;;;;;;;5.63;1.13;;;;;;;20.06;55.72;102035.88;5032719;28;20025;-69
2022/06/10 08:05:28;;;;;;;3.10;1.10;;;;;;;20.06;55.81;102039.38;5032215;28;20070;-69
2022/06/10 08:07:57;;;;;;;5.28;1.40;;;;;;;20.06;55.61;102042.03;5032595;28;20108;-68
2022/06/10 08:10:32;;;;;;;5.05;1.15;;;;;;;20.07;55.77;102048.16;5032673;28;20025;-68
2022/06/10 08:12:58;;;;;;;3.53;1.10;;;;;;;20.05;55.95;102042.97;5031886;28;20021;-68
2022/06/10 08:15:28;;;;;;;3.75;1.10;;;;;;;20.06;55.93;102043.81;5032294;28;20032;-68
2022/06/10 08:17:56;;;;;;;3.33;1.00;;;;;;;20.05;56.25;102050.91;5032550;28;20071;-67
2022/06/10 08:22:32;;;;;;;3.33;0.90;;;;;;;20.06;56.26;102043.81;5031724;28;20294;-68
2022/06/10 08:23:13;;;;;;;3.83;1.15;;;;;;;20.06;56.16;102049.09;5031942;28;20117;-67
2022/06/10 08:25:42;;;;;;;7.32;0.98;;;;;;;20.05;56.34;102050.06;5032332;28;20526;-68
2022/06/10 08:28:08;;;;;;;5.63;1.17;;;;;;;20.06;56.44;102046.47;5031341;28;20480;-68
2022/06/10 08:30:37;;;;;;;4.20;1.42;;;;;;;20.06;56.48;102051.75;5032665;28;20029;-68
2022/06/10 08:33:03;;;;;;;2.90;0.90;;;;;;;20.06;56.57;102054.41;5031371;28;20039;-68
2022/06/10 08:35:32;;;;;;;3.45;0.98;;;;;;;20.06;56.52;102051.75;5032343;28;20025;-68
2022/06/10 08:37:59;;;;;;;5.03;1.10;;;;;;;20.04;56.36;102048.38;5032388;28;20029;-69
2022/06/10 08:40:52;;;;;;;4.75;1.10;;;;;;;20.05;56.64;102053.56;5031521;28;20040;-68
2022/06/10 08:43:27;;;;;;;5.10;1.30;;;;;;;20.06;56.72;102043.81;5028959;28;20158;-68
2022/06/10 08:46:19;;;;;;;4.65;1.23;;;;;;;20.06;56.63;102043.81;5032568;28;20112;-69
2022/06/10 08:49:10;;;;;;;3.53;1.20;;;;;;;20.06;56.80;102035.88;5020221;28;20045;-68
2022/06/10 08:51:55;;;;;;;3.80;1.10;;;;;;;20.06;56.81;102039.38;5032431;28;20044;-69
2022/06/10 08:54:47;;;;;;;6.05;0.90;;;;;;;20.07;57.09;102029.63;5031528;28;20025;-67
2022/06/10 08:57:41;;;;;;;3.25;1.10;;;;;;;20.09;57.24;102030.38;5022051;28;20115;-67
2022/06/10 09:00:31;;;;;;;3.60;1.33;;;;;;;20.09;57.11;102027.72;5032090;28;20030;-67
2022/06/10 09:03:42;;;;;;;3.55;1.00;;;;;;;20.09;57.11;102033.00;5031715;28;20021;-69
2022/06/10 09:06:35;;;;;;;5.22;1.40;;;;;;;20.09;57.03;102025.94;5023088;28;20069;-69
2022/06/10 09:09:07;;;;;;;3.80;1.08;;;;;;;20.09;57.16;102025.94;5023652;28;20038;-67
2022/06/10 09:11:40;;;;;;;3.50;1.17;;;;;;;20.10;57.09;102026.78;5032195;28;20473;-68
2022/06/10 09:14:22;;;;;;;5.55;1.30;;;;;;;20.13;57.01;102031.00;5031734;28;20021;-67
2022/06/10 09:16:58;;;;;;;4.70;1.40;;;;;;;20.12;56.91;102032.78;5030449;28;20033;-68
2022/06/10 09:19:43;;;;;;;5.60;1.17;;;;;;;20.12;56.93;102038.09;5032064;28;20026;-68
2022/06/10 09:22:27;;;;;;;5.53;1.42;;;;;;;20.13;56.84;102037.16;5031959;28;20127;-68
2022/06/10 09:25:00;;;;;;;4.20;1.38;;;;;;;20.13;56.79;102033.66;5031820;28;20043;-68
2022/06/10 09:27:33;;;;;;;4.50;1.70;;;;;;;20.13;56.60;102047.72;5031757;28;20033;-69
2022/06/10 09:30:02;;;;;;;7.63;1.70;;;;;;;20.10;56.80;102038.19;5031297;28;20804;-67
2022/06/10 09:32:44;;;;;;;5.68;1.83;;;;;;;20.14;56.92;102046.78;5032129;28;20087;-67
2022/06/10 09:35:41;;;;;;;6.95;2.08;;;;;;;20.15;56.73;102044.97;5032859;28;20053;-67
2022/06/10 09:38:21;;;;;;;6.43;1.95;;;;;;;20.15;56.79;102037.88;5034417;28;20030;-69
2022/06/10 09:41:26;;;;;;;7.38;1.90;;;;;;;20.15;56.72;102043.16;5035510;28;20535;-68
2022/06/10 09:44:02;;;;;;;6.15;2.00;;;;;;;20.15;56.57;102037.88;5031763;28;20484;-69
2022/06/10 09:46:54;;;;;;;5.57;2.13;;;;;;;20.16;56.49;102044.03;5035372;28;20449;-69
2022/06/10 09:49:44;;;;;;;6.63;2.13;;;;;;;20.16;56.57;102044.88;5035104;28;20025;-68
2022/06/10 09:52:24;;;;;;;5.75;2.00;;;;;;;20.16;56.61;102047.50;5034360;28;20068;-68
2022/06/10 09:55:14;;;;;;;7.10;2.20;;;;;;;20.17;56.34;102041.28;5035369;28;20026;-69
2022/06/10 09:58:00;;;;;;;6.68;2.47;;;;;;;20.16;56.39;102039.56;5034666;28;20099;-68
2022/06/10 10:00:36;;;;;;;6.80;2.28;;;;;;;20.18;56.26;102042.94;5035141;28;20029;-68
2022/06/10 10:03:23;;;;;;;7.97;2.50;;;;;;;20.19;56.28;102044.66;5034910;28;20428;-68
2022/06/10 10:06:04;;;;;;;7.22;2.35;;;;;;;20.20;56.27;102040.19;5034240;28;20034;-68
2022/06/10 10:08:40;;;;;;;8.70;2.67;;;;;;;20.21;56.12;102044.53;5035086;28;20037;-68
2022/06/10 10:11:19;;;;;;;6.45;2.33;;;;;;;20.20;56.19;102049.00;5034851;28;20151;-69
2022/06/10 10:14:01;;;;;;;6.72;2.10;;;;;;;20.21;56.24;102045.38;5034345;28;20030;-68
2022/06/10 10:16:38;;;;;;;6.18;2.00;;;;;;;20.22;55.84;102048.84;5034912;28;20026;-69
2022/06/10 10:19:19;;;;;;;9.25;2.50;;;;;;;20.21;55.92;102045.38;5033815;28;20497;-70
2022/06/10 10:21:44;;;;;;;6.38;2.33;;;;;;;20.23;55.79;102053.22;5035001;28;20428;-70
2022/06/10 10:24:22;;;;;;;6.13;2.00;;;;;;;20.22;55.73;102046.22;5034468;28;20034;-71
2022/06/10 10:26:51;;;;;;;6.30;1.73;;;;;;;20.23;56.00;102045.28;5033931;28;20071;-70
2022/06/10 10:29:23;;;;;;;7.65;2.33;;;;;;;20.24;55.90;102044.31;5034088;28;20033;-69
2022/06/10 10:32:01;;;;;;;8.15;2.20;;;;;;;20.24;55.83;102036.38;5034519;28;20021;-69
2022/06/10 15:41:00;;;;;;;5.25;1.95;;;;;;;20.68;57.11;101939.66;5130067;27;20512;-68
2022/06/10 15:43:26;;;;;;;6.72;2.00;;;;;;;20.72;56.92;101937.59;5130669;27;20023;-69
2022/06/10 15:45:51;;;;;;;5.97;1.85;;;;;;;20.73;56.98;101934.84;5130520;27;20531;-69
2022/06/10 15:48:16;;;;;;;8.90;1.85;;;;;;;20.77;56.75;101932.78;5129962;27;20042;-69
2022/06/10 15:50:48;;;;;;;5.88;1.70;;;;;;;20.79;56.98;101937.03;5130503;28;20034;-70
2022/06/10 15:53:17;;;;;;;8.43;1.92;;;;;;;20.82;57.39;101938.59;5130201;28;20030;-68
2022/06/10 15:58:33;;;;;;;5.47;1.85;;;;;;;20.84;56.87;101924.28;5130384;28;20030;-68
2022/06/10 16:01:00;;;;;;;5.22;1.50;;;;;;;20.84;56.83;101923.44;5130136;28;20470;-68
2022/06/10 16:03:26;;;;;;;6.10;1.60;;;;;;;20.86;56.72;101928.63;5129280;28;20019;-68
2022/06/10 16:05:52;;;;;;;5.22;1.95;;;;;;;20.86;56.69;101929.44;5130476;28;20054;-68
2022/06/10 16:08:18;;;;;;;8.45;1.80;;;;;;;20.86;56.58;101929.44;5129363;28;20027;-68
2022/06/10 16:10:48;;;;;;;9.63;1.88;;;;;;;20.87;56.54;101930.28;5130194;27;20020;-68
2022/06/10 16:13:18;;;;;;;6.90;1.90;;;;;;;20.86;56.47;101929.44;5129678;27;20378;-69
2022/06/10 16:15:53;;;;;;;5.32;1.73;;;;;;;20.87;56.43;101928.50;5129153;28;20102;-69
2022/06/10 16:18:26;;;;;;;4.72;1.80;;;;;;;20.89;56.58;101931.03;5129997;28;20040;-68
2022/06/10 16:20:54;;;;;;;4.28;1.38;;;;;;;20.89;56.47;101931.88;5130179;28;20062;-67
2022/06/10 16:23:23;;;;;;;5.20;1.98;;;;;;;20.88;56.54;101924.88;5128972;28;20024;-68
2022/06/10 16:25:53;;;;;;;6.15;1.65;;;;;;;20.90;56.35;101927.41;5129783;27;20028;-67
2022/06/10 16:28:32;;;;;;;4.40;1.58;;;;;;;20.89;56.28;101923.91;5129592;27;20039;-68
2022/06/10 16:31:18;;;;;;;8.13;1.67;;;;;;;20.90;56.16;101928.25;5129124;27;20370;-70
2022/06/10 16:33:44;;;;;;;7.55;1.80;;;;;;;20.91;56.34;101923.81;5129486;28;20027;-69
2022/06/10 16:36:14;;;;;;;3.97;1.65;;;;;;;20.91;56.35;101923.81;5129114;27;20058;-69
2022/06/10 16:38:41;;;;;;;3.88;1.50;;;;;;;20.91;56.31;101918.50;5118405;27;20023;-68
2022/06/10 16:41:18;;;;;;;3.90;1.40;;;;;;;20.91;56.17;101918.50;5115272;28;20118;-68
2022/06/10 16:43:44;;;;;;;4.70;1.67;;;;;;;20.92;56.15;101921.03;5115135;28;20023;-68
2022/06/10 16:46:19;;;;;;;4.90;1.40;;;;;;;20.92;56.24;101920.16;5115460;28;20374;-68
2022/06/10 16:48:46;;;;;;;6.60;1.58;;;;;;;20.92;56.21;101918.38;5115560;28;20031;-68
2022/06/10 16:51:16;;;;;;;5.05;1.80;;;;;;;20.93;56.25;101919.22;5114590;28;20473;-68
2022/06/10 16:53:42;;;;;;;4.88;1.58;;;;;;;20.93;56.01;101913.94;5115701;28;20107;-69
2022/06/10 16:56:27;;;;;;;4.38;1.42;;;;;;;20.92;56.24;101917.53;5115179;28;20107;-68
2022/06/10 16:58:55;;;;;;;5.60;1.45;;;;;;;20.92;55.99;101918.38;5114589;28;20078;-69
2022/06/10 17:01:25;;;;;;;5.80;1.60;;;;;;;20.94;56.00;101907.69;5115180;28;20028;-68
2022/06/10 17:03:51;;;;;;;4.60;1.45;;;;;;;20.93;56.05;101914.75;5115257;28;20466;-68
2022/06/10 17:06:18;;;;;;;4.63;1.50;;;;;;;20.93;55.72;101914.75;5114434;28;20032;-68